ROMMA est une association bénévole à but non lucratif. Votre soutien est indispensable : ADHERER à ROMMA ou FAIRE un DON

Die - (26, Drôme)

Diois (400 m)   Longitude: 5° 21' 55"E   Latitude: 44° 45' 16"N Station partenaire n°159
 

Détail journalier du     <<     >>

Température Precipitation Humidité Pression Vent Dir Rafale Dir. rafale Ensol.
Heure (°C) (mm) (%) (hPa) (km/h) (km/h) (min)
01:00 5.6068103110N31NO0
02:00 5.706610319NO27NO0
03:00 5.506410306ONO23NO0
04:00 5.206510319NO35N0
05:00 0.708210312S6NNE0
06:00 -0.408710302S6S0
07:00 -0.808810302SSO8SSO0
08:00 -1.308910302NNE8NNO0
09:00 -0.908810303ENE8SSE0
10:00 1.908110302SSE8N50
11:00 5.106910312SSE6SSO60
12:00 8.305410312SSE6O60
13:00 8.905310314ONO15ONO60
14:00 8.805510309NO18NNO60
15:00 8.5057103010NO19NO60
16:00 5.407010313SO13NNO0
17:00 4.507410312N8NNO0
18:00 1.8081103103N0
19:00 0.6088103203N0
20:00 -0.3089103202N0
21:00 -1.3092103302N0
22:00 -1.6093103302N0
23:00 -2.2093103402N0
minuit -2.6093103403N0

Graphique du 05-01-2020

 

Serveur OMMA